sensor_id;sensor_type;location;lat;lon;timestamp;temperature;humidity
72126;SHT31;59999;51.676;22.650;2023-09-19T00:01:35;16.46;86.83
72126;SHT31;59999;51.676;22.650;2023-09-19T00:04:01;16.45;86.99
72126;SHT31;59999;51.676;22.650;2023-09-19T00:06:29;16.38;87.15
72126;SHT31;59999;51.676;22.650;2023-09-19T00:08:57;16.34;87.30
72126;SHT31;59999;51.676;22.650;2023-09-19T00:11:25;16.32;87.34
72126;SHT31;59999;51.676;22.650;2023-09-19T00:13:52;16.28;87.35
72126;SHT31;59999;51.676;22.650;2023-09-19T00:16:19;16.25;87.54
72126;SHT31;59999;51.676;22.650;2023-09-19T00:18:45;16.22;87.77
72126;SHT31;59999;51.676;22.650;2023-09-19T00:21:11;16.16;87.95
72126;SHT31;59999;51.676;22.650;2023-09-19T00:23:38;16.13;88.11
72126;SHT31;59999;51.676;22.650;2023-09-19T00:26:05;16.15;88.38
72126;SHT31;59999;51.676;22.650;2023-09-19T00:28:32;16.12;88.48
72126;SHT31;59999;51.676;22.650;2023-09-19T00:30:58;16.12;88.61
72126;SHT31;59999;51.676;22.650;2023-09-19T00:33:27;16.09;88.60
72126;SHT31;59999;51.676;22.650;2023-09-19T00:35:57;16.11;88.64
72126;SHT31;59999;51.676;22.650;2023-09-19T00:38:23;16.11;88.63
72126;SHT31;59999;51.676;22.650;2023-09-19T00:40:53;16.09;88.60
72126;SHT31;59999;51.676;22.650;2023-09-19T00:43:20;16.11;88.66
72126;SHT31;59999;51.676;22.650;2023-09-19T00:45:48;16.09;88.60
72126;SHT31;59999;51.676;22.650;2023-09-19T00:48:15;16.08;88.62
72126;SHT31;59999;51.676;22.650;2023-09-19T00:50:41;16.06;88.76
72126;SHT31;59999;51.676;22.650;2023-09-19T00:53:09;16.11;88.69
72126;SHT31;59999;51.676;22.650;2023-09-19T00:55:36;16.13;88.74
72126;SHT31;59999;51.676;22.650;2023-09-19T00:58:08;16.12;88.63
72126;SHT31;59999;51.676;22.650;2023-09-19T01:00:36;16.11;88.59
72126;SHT31;59999;51.676;22.650;2023-09-19T01:03:02;16.09;88.55
72126;SHT31;59999;51.676;22.650;2023-09-19T01:05:29;16.12;88.53
72126;SHT31;59999;51.676;22.650;2023-09-19T01:07:55;16.12;88.40
72126;SHT31;59999;51.676;22.650;2023-09-19T01:10:22;16.09;88.39
72126;SHT31;59999;51.676;22.650;2023-09-19T01:21:29;16.05;88.42
72126;SHT31;59999;51.676;22.650;2023-09-19T01:29:47;16.05;88.25
72126;SHT31;59999;51.676;22.650;2023-09-19T01:32:17;16.06;88.14
72126;SHT31;59999;51.676;22.650;2023-09-19T01:34:48;16.04;88.24
72126;SHT31;59999;51.676;22.650;2023-09-19T01:37:21;16.02;88.26
72126;SHT31;59999;51.676;22.650;2023-09-19T01:40:06;15.99;88.32
72126;SHT31;59999;51.676;22.650;2023-09-19T01:43:20;15.99;88.26
72126;SHT31;59999;51.676;22.650;2023-09-19T01:52:09;16.05;88.24
72126;SHT31;59999;51.676;22.650;2023-09-19T01:54:51;16.05;88.09
72126;SHT31;59999;51.676;22.650;2023-09-19T01:59:49;16.08;87.97
72126;SHT31;59999;51.676;22.650;2023-09-19T02:02:17;16.05;87.92
72126;SHT31;59999;51.676;22.650;2023-09-19T02:04:43;16.02;88.03
72126;SHT31;59999;51.676;22.650;2023-09-19T02:07:10;16.04;88.06
72126;SHT31;59999;51.676;22.650;2023-09-19T02:09:36;16.04;88.09
72126;SHT31;59999;51.676;22.650;2023-09-19T02:12:05;16.06;87.97
72126;SHT31;59999;51.676;22.650;2023-09-19T02:14:31;16.06;87.78
72126;SHT31;59999;51.676;22.650;2023-09-19T02:16:57;16.04;87.79
72126;SHT31;59999;51.676;22.650;2023-09-19T02:19:23;16.04;87.78
72126;SHT31;59999;51.676;22.650;2023-09-19T02:21:49;16.02;87.66
72126;SHT31;59999;51.676;22.650;2023-09-19T02:24:15;15.99;87.66
72126;SHT31;59999;51.676;22.650;2023-09-19T02:26:41;15.95;87.56
72126;SHT31;59999;51.676;22.650;2023-09-19T02:29:07;15.90;87.61
72126;SHT31;59999;51.676;22.650;2023-09-19T02:31:33;15.85;87.62
72126;SHT31;59999;51.676;22.650;2023-09-19T02:33:59;15.84;87.87
72126;SHT31;59999;51.676;22.650;2023-09-19T02:36:26;15.78;87.99
72126;SHT31;59999;51.676;22.650;2023-09-19T02:38:52;15.75;88.24
72126;SHT31;59999;51.676;22.650;2023-09-19T02:41:17;15.75;88.38
72126;SHT31;59999;51.676;22.650;2023-09-19T02:43:44;15.77;88.42
72126;SHT31;59999;51.676;22.650;2023-09-19T02:46:10;15.75;88.38
72126;SHT31;59999;51.676;22.650;2023-09-19T02:48:37;15.74;88.33
72126;SHT31;59999;51.676;22.650;2023-09-19T02:51:04;15.72;88.36
72126;SHT31;59999;51.676;22.650;2023-09-19T02:53:30;15.71;88.49
72126;SHT31;59999;51.676;22.650;2023-09-19T02:55:59;15.67;88.47
72126;SHT31;59999;51.676;22.650;2023-09-19T02:58:25;15.67;88.53
72126;SHT31;59999;51.676;22.650;2023-09-19T03:00:50;15.65;88.41
72126;SHT31;59999;51.676;22.650;2023-09-19T03:03:17;15.61;88.57
72126;SHT31;59999;51.676;22.650;2023-09-19T03:05:43;15.61;88.56
72126;SHT31;59999;51.676;22.650;2023-09-19T03:08:14;15.60;88.49
72126;SHT31;59999;51.676;22.650;2023-09-19T03:10:42;15.57;88.46
72126;SHT31;59999;51.676;22.650;2023-09-19T03:13:08;15.55;88.57
72126;SHT31;59999;51.676;22.650;2023-09-19T03:15:35;15.53;88.63
72126;SHT31;59999;51.676;22.650;2023-09-19T03:18:04;15.51;88.69
72126;SHT31;59999;51.676;22.650;2023-09-19T03:20:31;15.50;88.67
72126;SHT31;59999;51.676;22.650;2023-09-19T03:22:57;15.49;88.83
72126;SHT31;59999;51.676;22.650;2023-09-19T03:25:23;15.49;88.87
72126;SHT31;59999;51.676;22.650;2023-09-19T03:27:50;15.47;88.93
72126;SHT31;59999;51.676;22.650;2023-09-19T03:30:15;15.46;89.03
72126;SHT31;59999;51.676;22.650;2023-09-19T03:32:48;15.43;89.05
72126;SHT31;59999;51.676;22.650;2023-09-19T03:35:16;15.43;89.14
72126;SHT31;59999;51.676;22.650;2023-09-19T03:37:42;15.41;89.16
72126;SHT31;59999;51.676;22.650;2023-09-19T03:40:09;15.40;89.17
72126;SHT31;59999;51.676;22.650;2023-09-19T03:42:39;15.36;89.14
72126;SHT31;59999;51.676;22.650;2023-09-19T03:45:07;15.37;89.19
72126;SHT31;59999;51.676;22.650;2023-09-19T03:47:35;15.34;89.21
72126;SHT31;59999;51.676;22.650;2023-09-19T03:50:02;15.33;89.21
72126;SHT31;59999;51.676;22.650;2023-09-19T03:52:28;15.32;89.22
72126;SHT31;59999;51.676;22.650;2023-09-19T03:54:54;15.30;89.23
72126;SHT31;59999;51.676;22.650;2023-09-19T03:57:20;15.27;89.29
72126;SHT31;59999;51.676;22.650;2023-09-19T03:59:46;15.24;89.41
72126;SHT31;59999;51.676;22.650;2023-09-19T04:02:13;15.26;89.50
72126;SHT31;59999;51.676;22.650;2023-09-19T04:04:48;15.23;89.48
72126;SHT31;59999;51.676;22.650;2023-09-19T04:07:14;15.23;89.47
72126;SHT31;59999;51.676;22.650;2023-09-19T04:09:40;15.22;89.48
72126;SHT31;59999;51.676;22.650;2023-09-19T04:12:07;15.19;89.54
72126;SHT31;59999;51.676;22.650;2023-09-19T04:14:34;15.19;89.64
72126;SHT31;59999;51.676;22.650;2023-09-19T04:17:01;15.16;89.72
72126;SHT31;59999;51.676;22.650;2023-09-19T04:19:26;15.14;89.80
72126;SHT31;59999;51.676;22.650;2023-09-19T04:21:52;15.13;89.79
72126;SHT31;59999;51.676;22.650;2023-09-19T04:24:18;15.13;89.89
72126;SHT31;59999;51.676;22.650;2023-09-19T04:26:45;15.14;89.97
72126;SHT31;59999;51.676;22.650;2023-09-19T04:29:11;15.14;90.00
72126;SHT31;59999;51.676;22.650;2023-09-19T04:31:40;15.18;90.04
72126;SHT31;59999;51.676;22.650;2023-09-19T04:34:06;15.22;90.12
72126;SHT31;59999;51.676;22.650;2023-09-19T04:36:33;15.22;90.07
72126;SHT31;59999;51.676;22.650;2023-09-19T04:39:00;15.23;90.12
72126;SHT31;59999;51.676;22.650;2023-09-19T04:41:30;15.23;90.14
72126;SHT31;59999;51.676;22.650;2023-09-19T04:43:56;15.29;90.10
72126;SHT31;59999;51.676;22.650;2023-09-19T04:46:22;15.34;90.05
72126;SHT31;59999;51.676;22.650;2023-09-19T04:48:48;15.36;89.93
72126;SHT31;59999;51.676;22.650;2023-09-19T04:51:14;15.41;89.89
72126;SHT31;59999;51.676;22.650;2023-09-19T04:53:40;15.46;89.74
72126;SHT31;59999;51.676;22.650;2023-09-19T04:56:07;15.49;89.79
72126;SHT31;59999;51.676;22.650;2023-09-19T04:58:33;15.54;89.71
72126;SHT31;59999;51.676;22.650;2023-09-19T05:00:59;15.61;89.64
72126;SHT31;59999;51.676;22.650;2023-09-19T05:03:29;15.64;89.55
72126;SHT31;59999;51.676;22.650;2023-09-19T05:05:55;15.67;89.44
72126;SHT31;59999;51.676;22.650;2023-09-19T05:08:21;15.71;89.28
72126;SHT31;59999;51.676;22.650;2023-09-19T05:10:48;15.75;89.26
72126;SHT31;59999;51.676;22.650;2023-09-19T05:13:14;15.81;89.10
72126;SHT31;59999;51.676;22.650;2023-09-19T05:15:41;15.84;88.96
72126;SHT31;59999;51.676;22.650;2023-09-19T05:18:06;15.90;88.85
72126;SHT31;59999;51.676;22.650;2023-09-19T05:20:33;15.99;88.74
72126;SHT31;59999;51.676;22.650;2023-09-19T05:23:04;16.04;88.47
72126;SHT31;59999;51.676;22.650;2023-09-19T05:25:35;16.12;88.27
72126;SHT31;59999;51.676;22.650;2023-09-19T05:28:09;16.18;88.01
72126;SHT31;59999;51.676;22.650;2023-09-19T05:30:36;16.25;87.58
72126;SHT31;59999;51.676;22.650;2023-09-19T05:33:04;16.32;87.34
72126;SHT31;59999;51.676;22.650;2023-09-19T05:35:31;16.36;87.01
72126;SHT31;59999;51.676;22.650;2023-09-19T05:37:57;16.45;86.54
72126;SHT31;59999;51.676;22.650;2023-09-19T05:40:24;16.52;86.37
72126;SHT31;59999;51.676;22.650;2023-09-19T05:42:50;16.60;86.20
72126;SHT31;59999;51.676;22.650;2023-09-19T05:45:17;16.67;86.03
72126;SHT31;59999;51.676;22.650;2023-09-19T05:47:49;16.77;85.72
72126;SHT31;59999;51.676;22.650;2023-09-19T05:50:15;16.91;85.53
72126;SHT31;59999;51.676;22.650;2023-09-19T05:52:42;17.08;85.04
72126;SHT31;59999;51.676;22.650;2023-09-19T05:55:09;17.24;84.49
72126;SHT31;59999;51.676;22.650;2023-09-19T05:57:37;17.38;84.14
72126;SHT31;59999;51.676;22.650;2023-09-19T06:00:06;17.53;83.63
72126;SHT31;59999;51.676;22.650;2023-09-19T06:02:36;17.69;83.10
72126;SHT31;59999;51.676;22.650;2023-09-19T06:05:06;17.82;82.90
72126;SHT31;59999;51.676;22.650;2023-09-19T06:07:37;17.98;82.07
72126;SHT31;59999;51.676;22.650;2023-09-19T06:10:04;18.17;82.05
72126;SHT31;59999;51.676;22.650;2023-09-19T06:12:40;18.34;81.66
72126;SHT31;59999;51.676;22.650;2023-09-19T06:15:09;18.47;81.15
72126;SHT31;59999;51.676;22.650;2023-09-19T06:17:51;18.59;80.77
72126;SHT31;59999;51.676;22.650;2023-09-19T06:20:17;18.75;80.22
72126;SHT31;59999;51.676;22.650;2023-09-19T06:22:45;18.83;79.62
72126;SHT31;59999;51.676;22.650;2023-09-19T06:25:13;18.90;78.68
72126;SHT31;59999;51.676;22.650;2023-09-19T06:27:45;18.92;78.55
72126;SHT31;59999;51.676;22.650;2023-09-19T06:30:12;18.98;78.28
72126;SHT31;59999;51.676;22.650;2023-09-19T06:32:40;19.03;77.24
72126;SHT31;59999;51.676;22.650;2023-09-19T06:35:10;19.14;77.70
72126;SHT31;59999;51.676;22.650;2023-09-19T06:37:40;19.28;76.79
72126;SHT31;59999;51.676;22.650;2023-09-19T06:40:11;19.44;76.95
72126;SHT31;59999;51.676;22.650;2023-09-19T06:42:44;19.62;75.88
72126;SHT31;59999;51.676;22.650;2023-09-19T06:45:14;19.78;75.38
72126;SHT31;59999;51.676;22.650;2023-09-19T06:47:51;19.89;74.97
72126;SHT31;59999;51.676;22.650;2023-09-19T06:50:21;19.98;75.11
72126;SHT31;59999;51.676;22.650;2023-09-19T06:52:52;20.08;74.59
72126;SHT31;59999;51.676;22.650;2023-09-19T06:55:20;20.17;73.95
72126;SHT31;59999;51.676;22.650;2023-09-19T06:57:46;20.26;72.93
72126;SHT31;59999;51.676;22.650;2023-09-19T07:00:13;20.41;72.72
72126;SHT31;59999;51.676;22.650;2023-09-19T07:02:59;20.54;71.45
72126;SHT31;59999;51.676;22.650;2023-09-19T07:05:27;20.77;72.16
72126;SHT31;59999;51.676;22.650;2023-09-19T07:07:53;20.98;69.89
72126;SHT31;59999;51.676;22.650;2023-09-19T07:10:22;21.18;69.76
72126;SHT31;59999;51.676;22.650;2023-09-19T07:13:05;21.31;68.94
72126;SHT31;59999;51.676;22.650;2023-09-19T07:15:37;21.35;68.15
72126;SHT31;59999;51.676;22.650;2023-09-19T07:18:15;21.43;68.61
72126;SHT31;59999;51.676;22.650;2023-09-19T07:20:43;21.52;67.64
72126;SHT31;59999;51.676;22.650;2023-09-19T07:23:21;21.47;67.56
72126;SHT31;59999;51.676;22.650;2023-09-19T07:25:49;21.47;67.88
72126;SHT31;59999;51.676;22.650;2023-09-19T07:28:15;21.50;67.92
72126;SHT31;59999;51.676;22.650;2023-09-19T07:30:42;21.60;68.25
72126;SHT31;59999;51.676;22.650;2023-09-19T07:33:08;21.67;67.62
72126;SHT31;59999;51.676;22.650;2023-09-19T07:35:37;21.73;67.99
72126;SHT31;59999;51.676;22.650;2023-09-19T07:38:06;21.84;67.30
72126;SHT31;59999;51.676;22.650;2023-09-19T07:40:32;21.90;67.10
72126;SHT31;59999;51.676;22.650;2023-09-19T07:42:58;21.94;66.88
72126;SHT31;59999;51.676;22.650;2023-09-19T07:45:33;22.04;65.80
72126;SHT31;59999;51.676;22.650;2023-09-19T07:47:59;22.11;65.84
72126;SHT31;59999;51.676;22.650;2023-09-19T07:50:30;22.21;65.36
72126;SHT31;59999;51.676;22.650;2023-09-19T07:52:56;22.27;64.91
72126;SHT31;59999;51.676;22.650;2023-09-19T07:55:22;22.29;64.65
72126;SHT31;59999;51.676;22.650;2023-09-19T07:57:54;22.32;64.65
72126;SHT31;59999;51.676;22.650;2023-09-19T08:00:20;22.42;64.43
72126;SHT31;59999;51.676;22.650;2023-09-19T08:02:47;22.48;64.45
72126;SHT31;59999;51.676;22.650;2023-09-19T08:05:13;22.55;65.20
72126;SHT31;59999;51.676;22.650;2023-09-19T08:07:45;22.66;64.62
72126;SHT31;59999;51.676;22.650;2023-09-19T08:10:15;22.83;63.43
72126;SHT31;59999;51.676;22.650;2023-09-19T08:12:44;22.86;63.98
72126;SHT31;59999;51.676;22.650;2023-09-19T08:15:17;22.79;64.06
72126;SHT31;59999;51.676;22.650;2023-09-19T08:17:44;22.65;64.32
72126;SHT31;59999;51.676;22.650;2023-09-19T08:20:10;22.59;64.33
72126;SHT31;59999;51.676;22.650;2023-09-19T08:22:49;22.48;64.51
72126;SHT31;59999;51.676;22.650;2023-09-19T08:25:18;22.51;65.03
72126;SHT31;59999;51.676;22.650;2023-09-19T08:27:45;22.48;64.75
72126;SHT31;59999;51.676;22.650;2023-09-19T08:30:16;22.41;65.22
72126;SHT31;59999;51.676;22.650;2023-09-19T08:32:42;22.42;65.79
72126;SHT31;59999;51.676;22.650;2023-09-19T08:35:12;22.53;65.54
72126;SHT31;59999;51.676;22.650;2023-09-19T08:37:37;22.62;65.68
72126;SHT31;59999;51.676;22.650;2023-09-19T08:40:04;22.76;64.95
72126;SHT31;59999;51.676;22.650;2023-09-19T08:42:31;22.75;65.38
72126;SHT31;59999;51.676;22.650;2023-09-19T08:45:13;22.75;64.99
72126;SHT31;59999;51.676;22.650;2023-09-19T08:47:50;22.80;65.21
72126;SHT31;59999;51.676;22.650;2023-09-19T08:50:26;22.86;65.62
72126;SHT31;59999;51.676;22.650;2023-09-19T08:52:55;22.83;64.81
72126;SHT31;59999;51.676;22.650;2023-09-19T08:55:27;22.86;64.79
72126;SHT31;59999;51.676;22.650;2023-09-19T08:57:59;22.72;64.34
72126;SHT31;59999;51.676;22.650;2023-09-19T09:00:27;22.48;65.18
72126;SHT31;59999;51.676;22.650;2023-09-19T09:02:55;22.39;65.48
72126;SHT31;59999;51.676;22.650;2023-09-19T09:05:23;22.38;65.69
72126;SHT31;59999;51.676;22.650;2023-09-19T09:07:50;22.24;65.63
72126;SHT31;59999;51.676;22.650;2023-09-19T09:10:22;22.14;65.81
72126;SHT31;59999;51.676;22.650;2023-09-19T09:12:52;21.96;66.24
72126;SHT31;59999;51.676;22.650;2023-09-19T09:15:22;21.84;66.92
72126;SHT31;59999;51.676;22.650;2023-09-19T09:17:51;21.60;67.63
72126;SHT31;59999;51.676;22.650;2023-09-19T09:20:21;21.50;68.07
72126;SHT31;59999;51.676;22.650;2023-09-19T09:22:54;21.43;68.09
72126;SHT31;59999;51.676;22.650;2023-09-19T09:25:22;21.39;68.55
72126;SHT31;59999;51.676;22.650;2023-09-19T09:28:02;21.26;68.57
72126;SHT31;59999;51.676;22.650;2023-09-19T09:30:35;21.26;68.73
72126;SHT31;59999;51.676;22.650;2023-09-19T09:33:09;21.16;68.73
72126;SHT31;59999;51.676;22.650;2023-09-19T09:35:58;21.08;69.23
72126;SHT31;59999;51.676;22.650;2023-09-19T09:38:27;21.05;69.83
72126;SHT31;59999;51.676;22.650;2023-09-19T09:40:59;20.94;69.68
72126;SHT31;59999;51.676;22.650;2023-09-19T09:43:34;20.83;70.21
72126;SHT31;59999;51.676;22.650;2023-09-19T09:46:15;20.83;70.82
72126;SHT31;59999;51.676;22.650;2023-09-19T09:49:07;20.77;71.19
72126;SHT31;59999;51.676;22.650;2023-09-19T09:51:48;20.68;72.29
72126;SHT31;59999;51.676;22.650;2023-09-19T09:54:24;20.67;71.85
72126;SHT31;59999;51.676;22.650;2023-09-19T09:57:00;20.57;71.74
72126;SHT31;59999;51.676;22.650;2023-09-19T09:59:57;20.53;72.33
72126;SHT31;59999;51.676;22.650;2023-09-19T10:02:35;20.46;71.73
72126;SHT31;59999;51.676;22.650;2023-09-19T10:05:20;20.44;71.87
72126;SHT31;59999;51.676;22.650;2023-09-19T10:07:53;20.41;71.78
72126;SHT31;59999;51.676;22.650;2023-09-19T10:10:51;20.41;71.76
72126;SHT31;59999;51.676;22.650;2023-09-19T10:13:19;20.36;71.78
72126;SHT31;59999;51.676;22.650;2023-09-19T10:15:50;20.34;72.16
72126;SHT31;59999;51.676;22.650;2023-09-19T10:18:25;20.37;73.06
72126;SHT31;59999;51.676;22.650;2023-09-19T10:20:52;20.39;74.43
72126;SHT31;59999;51.676;22.650;2023-09-19T10:23:20;20.34;75.72
72126;SHT31;59999;51.676;22.650;2023-09-19T10:25:49;20.26;75.49
72126;SHT31;59999;51.676;22.650;2023-09-19T10:28:17;20.13;76.62
72126;SHT31;59999;51.676;22.650;2023-09-19T10:30:51;20.02;76.99
72126;SHT31;59999;51.676;22.650;2023-09-19T10:33:22;19.96;77.55
72126;SHT31;59999;51.676;22.650;2023-09-19T10:35:49;19.88;78.17
72126;SHT31;59999;51.676;22.650;2023-09-19T10:38:23;19.82;77.71
72126;SHT31;59999;51.676;22.650;2023-09-19T10:40:51;19.81;78.23
72126;SHT31;59999;51.676;22.650;2023-09-19T10:43:19;19.79;77.77
72126;SHT31;59999;51.676;22.650;2023-09-19T10:45:46;19.81;78.63
72126;SHT31;59999;51.676;22.650;2023-09-19T10:48:16;19.85;77.92
72126;SHT31;59999;51.676;22.650;2023-09-19T10:51:07;19.86;77.99
72126;SHT31;59999;51.676;22.650;2023-09-19T10:54:02;19.89;79.09
72126;SHT31;59999;51.676;22.650;2023-09-19T10:56:36;19.95;78.09
72126;SHT31;59999;51.676;22.650;2023-09-19T10:59:09;20.06;77.77
72126;SHT31;59999;51.676;22.650;2023-09-19T11:01:49;20.15;78.07
72126;SHT31;59999;51.676;22.650;2023-09-19T11:04:23;20.23;77.23
72126;SHT31;59999;51.676;22.650;2023-09-19T11:07:13;20.29;76.01
72126;SHT31;59999;51.676;22.650;2023-09-19T11:09:50;20.30;76.08
72126;SHT31;59999;51.676;22.650;2023-09-19T11:14:58;20.46;76.53
72126;SHT31;59999;51.676;22.650;2023-09-19T11:30:38;20.34;76.12
72126;SHT31;59999;51.676;22.650;2023-09-19T11:33:20;20.25;76.02
72126;SHT31;59999;51.676;22.650;2023-09-19T11:46:33;19.54;78.10
72126;SHT31;59999;51.676;22.650;2023-09-19T11:49:06;19.48;79.44
72126;SHT31;59999;51.676;22.650;2023-09-19T11:51:43;19.35;79.36
72126;SHT31;59999;51.676;22.650;2023-09-19T11:54:13;19.27;80.41
72126;SHT31;59999;51.676;22.650;2023-09-19T11:56:52;19.14;80.89
72126;SHT31;59999;51.676;22.650;2023-09-19T11:59:26;19.06;81.75
72126;SHT31;59999;51.676;22.650;2023-09-19T12:01:57;19.00;81.76
72126;SHT31;59999;51.676;22.650;2023-09-19T12:07:10;18.85;83.10
72126;SHT31;59999;51.676;22.650;2023-09-19T12:09:51;18.71;83.71
72126;SHT31;59999;51.676;22.650;2023-09-19T12:12:28;18.49;84.72
72126;SHT31;59999;51.676;22.650;2023-09-19T12:14:56;18.38;85.53
72126;SHT31;59999;51.676;22.650;2023-09-19T12:17:36;18.24;86.19
72126;SHT31;59999;51.676;22.650;2023-09-19T12:20:02;18.13;86.88
72126;SHT31;59999;51.676;22.650;2023-09-19T12:22:45;18.04;87.33
72126;SHT31;59999;51.676;22.650;2023-09-19T12:25:13;17.98;87.96
72126;SHT31;59999;51.676;22.650;2023-09-19T12:27:46;17.93;88.11
72126;SHT31;59999;51.676;22.650;2023-09-19T12:30:13;17.87;88.41
72126;SHT31;59999;51.676;22.650;2023-09-19T12:32:48;17.80;88.69
72126;SHT31;59999;51.676;22.650;2023-09-19T12:35:31;17.73;88.94
72126;SHT31;59999;51.676;22.650;2023-09-19T12:38:01;17.70;89.18
72126;SHT31;59999;51.676;22.650;2023-09-19T12:40:29;17.69;89.14
72126;SHT31;59999;51.676;22.650;2023-09-19T12:42:59;17.66;89.27
72126;SHT31;59999;51.676;22.650;2023-09-19T12:45:25;17.67;89.40
72126;SHT31;59999;51.676;22.650;2023-09-19T12:48:23;17.66;89.68
72126;SHT31;59999;51.676;22.650;2023-09-19T12:51:09;17.62;89.86
72126;SHT31;59999;51.676;22.650;2023-09-19T12:53:57;17.56;90.12
72126;SHT31;59999;51.676;22.650;2023-09-19T12:56:23;17.49;90.31
72126;SHT31;59999;51.676;22.650;2023-09-19T12:58:57;17.46;90.57
72126;SHT31;59999;51.676;22.650;2023-09-19T13:01:32;17.42;90.72
72126;SHT31;59999;51.676;22.650;2023-09-19T13:04:14;17.43;90.89
72126;SHT31;59999;51.676;22.650;2023-09-19T13:06:44;17.40;91.13
72126;SHT31;59999;51.676;22.650;2023-09-19T13:09:11;17.39;91.24
72126;SHT31;59999;51.676;22.650;2023-09-19T13:11:38;17.38;91.24
72126;SHT31;59999;51.676;22.650;2023-09-19T13:19:41;17.36;91.61
72126;SHT31;59999;51.676;22.650;2023-09-19T13:22:44;17.36;91.71
72126;SHT31;59999;51.676;22.650;2023-09-19T13:25:15;17.34;91.79
72126;SHT31;59999;51.676;22.650;2023-09-19T13:27:44;17.32;91.90
72126;SHT31;59999;51.676;22.650;2023-09-19T13:30:14;17.31;92.07
72126;SHT31;59999;51.676;22.650;2023-09-19T13:32:40;17.32;92.10
72126;SHT31;59999;51.676;22.650;2023-09-19T13:35:09;17.31;92.12
72126;SHT31;59999;51.676;22.650;2023-09-19T13:37:37;17.31;92.20
72126;SHT31;59999;51.676;22.650;2023-09-19T13:40:14;17.32;92.24
72126;SHT31;59999;51.676;22.650;2023-09-19T13:42:40;17.32;92.33
72126;SHT31;59999;51.676;22.650;2023-09-19T13:45:07;17.29;92.45
72126;SHT31;59999;51.676;22.650;2023-09-19T13:47:38;17.32;92.38
72126;SHT31;59999;51.676;22.650;2023-09-19T13:50:05;17.34;92.36
72126;SHT31;59999;51.676;22.650;2023-09-19T13:52:31;17.35;92.36
72126;SHT31;59999;51.676;22.650;2023-09-19T13:54:58;17.34;92.32
72126;SHT31;59999;51.676;22.650;2023-09-19T13:57:24;17.34;92.29
72126;SHT31;59999;51.676;22.650;2023-09-19T13:59:54;17.31;92.33
72126;SHT31;59999;51.676;22.650;2023-09-19T14:02:21;17.32;92.43
72126;SHT31;59999;51.676;22.650;2023-09-19T14:04:51;17.35;92.49
72126;SHT31;59999;51.676;22.650;2023-09-19T14:07:17;17.35;92.50
72126;SHT31;59999;51.676;22.650;2023-09-19T14:09:44;17.34;92.44
72126;SHT31;59999;51.676;22.650;2023-09-19T14:12:11;17.38;92.44
72126;SHT31;59999;51.676;22.650;2023-09-19T14:14:37;17.38;92.51
72126;SHT31;59999;51.676;22.650;2023-09-19T14:17:04;17.40;92.47
72126;SHT31;59999;51.676;22.650;2023-09-19T14:19:30;17.43;92.53
72126;SHT31;59999;51.676;22.650;2023-09-19T14:21:56;17.43;92.65
72126;SHT31;59999;51.676;22.650;2023-09-19T14:24:22;17.43;92.70
72126;SHT31;59999;51.676;22.650;2023-09-19T14:26:49;17.46;92.61
72126;SHT31;59999;51.676;22.650;2023-09-19T14:29:15;17.46;92.64
72126;SHT31;59999;51.676;22.650;2023-09-19T14:31:42;17.49;92.65
72126;SHT31;59999;51.676;22.650;2023-09-19T14:34:09;17.50;92.56
72126;SHT31;59999;51.676;22.650;2023-09-19T14:36:38;17.52;92.54
72126;SHT31;59999;51.676;22.650;2023-09-19T14:39:07;17.49;92.29
72126;SHT31;59999;51.676;22.650;2023-09-19T14:41:34;17.46;92.49
72126;SHT31;59999;51.676;22.650;2023-09-19T14:44:02;17.46;92.62
72126;SHT31;59999;51.676;22.650;2023-09-19T14:46:28;17.45;92.75
72126;SHT31;59999;51.676;22.650;2023-09-19T14:48:56;17.46;92.75
72126;SHT31;59999;51.676;22.650;2023-09-19T14:51:25;17.45;92.64
72126;SHT31;59999;51.676;22.650;2023-09-19T14:53:52;17.45;92.65
72126;SHT31;59999;51.676;22.650;2023-09-19T14:56:18;17.46;92.75
72126;SHT31;59999;51.676;22.650;2023-09-19T14:58:45;17.45;92.74
72126;SHT31;59999;51.676;22.650;2023-09-19T15:01:13;17.42;92.80
72126;SHT31;59999;51.676;22.650;2023-09-19T15:03:41;17.42;92.81
72126;SHT31;59999;51.676;22.650;2023-09-19T15:06:11;17.36;92.90
72126;SHT31;59999;51.676;22.650;2023-09-19T15:08:41;17.39;92.97
72126;SHT31;59999;51.676;22.650;2023-09-19T15:11:11;17.36;93.09
72126;SHT31;59999;51.676;22.650;2023-09-19T15:13:38;17.39;93.17
72126;SHT31;59999;51.676;22.650;2023-09-19T15:16:06;17.39;93.18
72126;SHT31;59999;51.676;22.650;2023-09-19T15:18:38;17.38;93.20
72126;SHT31;59999;51.676;22.650;2023-09-19T15:21:08;17.38;93.28
72126;SHT31;59999;51.676;22.650;2023-09-19T15:23:37;17.39;93.31
72126;SHT31;59999;51.676;22.650;2023-09-19T15:26:04;17.36;93.37
72126;SHT31;59999;51.676;22.650;2023-09-19T15:28:31;17.36;93.38
72126;SHT31;59999;51.676;22.650;2023-09-19T15:30:59;17.39;93.42
72126;SHT31;59999;51.676;22.650;2023-09-19T15:33:26;17.38;93.43
72126;SHT31;59999;51.676;22.650;2023-09-19T15:36:20;17.40;93.49
72126;SHT31;59999;51.676;22.650;2023-09-19T15:39:05;17.40;93.46
72126;SHT31;59999;51.676;22.650;2023-09-19T15:41:34;17.40;93.51
72126;SHT31;59999;51.676;22.650;2023-09-19T15:44:02;17.39;93.55
72126;SHT31;59999;51.676;22.650;2023-09-19T15:46:31;17.39;93.58
72126;SHT31;59999;51.676;22.650;2023-09-19T15:48:59;17.40;93.58
72126;SHT31;59999;51.676;22.650;2023-09-19T15:51:26;17.39;93.64
72126;SHT31;59999;51.676;22.650;2023-09-19T15:53:54;17.40;93.71
72126;SHT31;59999;51.676;22.650;2023-09-19T15:56:22;17.39;93.78
72126;SHT31;59999;51.676;22.650;2023-09-19T15:58:51;17.45;93.85
72126;SHT31;59999;51.676;22.650;2023-09-19T16:01:18;17.43;93.96
72126;SHT31;59999;51.676;22.650;2023-09-19T16:03:49;17.42;94.12
72126;SHT31;59999;51.676;22.650;2023-09-19T16:06:16;17.46;94.30
72126;SHT31;59999;51.676;22.650;2023-09-19T16:08:45;17.45;94.35
72126;SHT31;59999;51.676;22.650;2023-09-19T16:11:12;17.45;94.24
72126;SHT31;59999;51.676;22.650;2023-09-19T16:13:40;17.43;94.05
72126;SHT31;59999;51.676;22.650;2023-09-19T16:16:09;17.39;93.53
72126;SHT31;59999;51.676;22.650;2023-09-19T16:18:53;17.31;93.15
72126;SHT31;59999;51.676;22.650;2023-09-19T16:21:26;17.28;93.11
72126;SHT31;59999;51.676;22.650;2023-09-19T16:23:53;17.22;93.11
72126;SHT31;59999;51.676;22.650;2023-09-19T16:26:20;17.21;93.21
72126;SHT31;59999;51.676;22.650;2023-09-19T16:28:47;17.15;93.29
72126;SHT31;59999;51.676;22.650;2023-09-19T16:31:13;17.12;93.42